首页
METAR-TAF:

METAR-TAF

机场 :

希奥利艾机场

希奥利艾, 立陶宛

纬度: 55-53-38N, 经度: 023-23-42E, 海拔: 135米

当前天气观测

该预报发布于36分钟前的04:50 UTC
风速7节,风向西北
温度 12°C
湿度 94%
气压 1006 hPa
能见度10公里或以上
少量云层高于400英尺
散云层高于10000英尺

METAR: EYSA 170450Z 32007KT 9999 FEW004 SCT100 12/11 Q1006 BLU TEMPO BKN004 YLO2

时间: 08:26 (05:26 UTC)

预报

该预报发布于3小时和19分钟前的02:07 UTC
预报有效从17日的 03点(UTC)到 17日的 12点(UTC)
风速10节,风向西北
能見度: 7000
多云层高于1500英尺
几率 40% :
短暂存在
从 17日的 03点(UTC)到 17日的 06点(UTC)
能見度: 1500
多云层高于300英尺
轻雾
短暂存在
从 17日的 06点(UTC)到 17日的 12点(UTC)
多云层高于500英尺
多云层高于1300英尺, 积雨云.
阵雨

TAF: EYSA 170207Z 1703/1712 32010KT 7000 BKN015 PROB40 TEMPO 1703/1706 1500 BR BKN003 TEMPO 1706/1712 SHRA BKN005 BKN013CB

超过4000个机场的气象观测和天气预报(METAR&TAF报告)。

可查询的气象台以黄色和红色小点在地图上表示。

将鼠标移到小点上方,可查看气象台名称。

然后点击查看天气观测和预报。

如需切换地图:点击带黑十字的绿色按钮放大地图;点击带横线的绿色按钮缩小地图;或者点击绿色箭头查看邻近地区的地图。


METAR-TAF: